• Join FlightAware (Why Join?)
  • Login
  • US Flag 
10:45PM EDT


 

Airport Tracker/Info


-or-


 

Live Flight TrackerFlight Track Log ✈ SKW4505 ✈ 21-Apr-2013 ✈ KSAN - KLAX

Flight Track Log - Related Links

Times and Time Zones

All times are in EDT time to prevent confusion due to time zone crossing. See the SKW4505 flight status page for this flight to view local times or setup timezone preferences in your user account.

Time Position Orientation Groundspeed Altitude Reporting Facility
EDT Latitude Longitude Course Direction KTS MPH feet Rate Location/Type
01:28AM 32.7500 -117.2333 320° Northwest 195 224 2,400  Level Southern California TRACON
01:29AM 32.8000 -117.3000 312° West 279 321 4,700 2,820 Climbing Southern California TRACON
01:30AM 32.9274 -117.3773 320° Northwest  Level FlightAware Approximate
01:30AM 32.8231 -117.3544 297° West 270 311 7,200  Level Los Angeles Center
01:31AM 32.9921 -117.4419 320° Northwest  Level FlightAware Approximate
01:31AM 32.8678 -117.4325 304° West 283 326 9,900  Level Los Angeles Center
01:32AM 33.0569 -117.5066 320° Northwest  Level FlightAware Approximate
01:32AM 32.9278 -117.5028 315° West 312 359 10,000  Level Los Angeles Center
01:33AM 33.1216 -117.5714 320° Northwest  Level FlightAware Approximate
01:33AM 33.0050 -117.5664 325° Northwest 336 387 10,000  Level Los Angeles Center
01:34AM 33.0686 -117.6614 309° West 364 419 10,000  Level Los Angeles Center
01:35AM 33.1306 -117.7583 307° West 367 422 10,000  Level Los Angeles Center
01:36AM 33.2017 -117.8417 316° Northwest 370 426 10,000  Level Los Angeles Center
01:37AM 33.3208 -117.8850 343° North 376 433 10,000 -240 Level Los Angeles Center
01:38AM 33.4103 -117.9183 343° North 349 402 9,600 -960 Descending Los Angeles Center
01:39AM 33.4861 -117.9456 343° North 297 342 8,100 -1,320 Descending Los Angeles Center
01:40AM 33.5608 -117.9719 344° North 286 329 7,000 -540 Descending Los Angeles Center
01:41AM 33.6333 -118.0000 342° North 279 321 7,000  Level Southern California TRACON
01:42AM 33.7167 -118.0333 342° North 280 322 7,000  Level Southern California TRACON
01:43AM 33.7833 -118.0500 348° North 253 291 7,000 -480 Level Southern California TRACON
01:44AM 33.8500 -118.0667 348° North 253 291 6,100 -1,140 Descending Southern California TRACON
01:45AM 33.9167 -118.0667 360° North 243 280 4,900 -1,020 Descending Southern California TRACON
01:46AM 33.9667 -118.1333 312° West 192 221 3,900 -840 Descending Southern California TRACON
01:47AM 33.9569 -118.1942 259° West 192 221 3,200 -900 Descending Los Angeles Center
01:48AM 33.9514 -118.2542 264° West 185 213 2,200 -1,020 Descending Los Angeles Center